sensor_id;sensor_type;location;lat;lon;timestamp;temperature;humidity
37938;DHT22;23763;48.130;11.602;2022-09-09T00:00:41;17.10;99.90
37938;DHT22;23763;48.130;11.602;2022-09-09T00:03:22;17.10;99.90
37938;DHT22;23763;48.130;11.602;2022-09-09T00:08:33;17.00;99.90
37938;DHT22;23763;48.130;11.602;2022-09-09T00:11:03;16.90;99.90
37938;DHT22;23763;48.130;11.602;2022-09-09T00:13:33;16.90;99.90
37938;DHT22;23763;48.130;11.602;2022-09-09T00:16:27;16.90;99.90
37938;DHT22;23763;48.130;11.602;2022-09-09T00:19:07;16.90;99.90
37938;DHT22;23763;48.130;11.602;2022-09-09T00:21:39;16.90;99.90
37938;DHT22;23763;48.130;11.602;2022-09-09T00:24:31;16.90;99.90
37938;DHT22;23763;48.130;11.602;2022-09-09T00:27:11;17.00;99.90
37938;DHT22;23763;48.130;11.602;2022-09-09T00:29:51;17.00;99.90
37938;DHT22;23763;48.130;11.602;2022-09-09T00:32:20;17.00;99.90
37938;DHT22;23763;48.130;11.602;2022-09-09T00:35:03;17.10;99.90
37938;DHT22;23763;48.130;11.602;2022-09-09T00:37:36;17.10;99.90
37938;DHT22;23763;48.130;11.602;2022-09-09T00:59:51;17.30;99.90
37938;DHT22;23763;48.130;11.602;2022-09-09T01:05:23;17.30;99.90
37938;DHT22;23763;48.130;11.602;2022-09-09T01:07:52;17.20;99.90
37938;DHT22;23763;48.130;11.602;2022-09-09T01:10:51;17.20;99.90
37938;DHT22;23763;48.130;11.602;2022-09-09T01:13:34;17.20;99.90
37938;DHT22;23763;48.130;11.602;2022-09-09T01:16:03;17.10;99.90
37938;DHT22;23763;48.130;11.602;2022-09-09T01:18:33;17.10;99.90
37938;DHT22;23763;48.130;11.602;2022-09-09T01:21:08;17.10;99.90
37938;DHT22;23763;48.130;11.602;2022-09-09T01:23:54;17.00;99.90
37938;DHT22;23763;48.130;11.602;2022-09-09T01:26:32;17.00;99.90
37938;DHT22;23763;48.130;11.602;2022-09-09T01:28:59;16.90;99.90
37938;DHT22;23763;48.130;11.602;2022-09-09T01:31:39;16.90;99.90
37938;DHT22;23763;48.130;11.602;2022-09-09T01:34:14;16.90;99.90
37938;DHT22;23763;48.130;11.602;2022-09-09T01:39:09;17.00;99.90
37938;DHT22;23763;48.130;11.602;2022-09-09T01:41:36;16.90;99.90
37938;DHT22;23763;48.130;11.602;2022-09-09T01:44:02;16.90;99.90
37938;DHT22;23763;48.130;11.602;2022-09-09T01:46:29;16.80;99.90
37938;DHT22;23763;48.130;11.602;2022-09-09T01:48:56;16.80;99.90
37938;DHT22;23763;48.130;11.602;2022-09-09T01:51:23;16.80;99.90
37938;DHT22;23763;48.130;11.602;2022-09-09T01:53:49;16.70;99.90
37938;DHT22;23763;48.130;11.602;2022-09-09T01:59:18;16.70;99.90
37938;DHT22;23763;48.130;11.602;2022-09-09T02:07:45;16.50;99.90
37938;DHT22;23763;48.130;11.602;2022-09-09T02:10:37;16.50;99.90
37938;DHT22;23763;48.130;11.602;2022-09-09T02:13:10;16.50;99.90
37938;DHT22;23763;48.130;11.602;2022-09-09T02:16:00;16.40;99.90
37938;DHT22;23763;48.130;11.602;2022-09-09T02:18:32;16.40;99.90
37938;DHT22;23763;48.130;11.602;2022-09-09T02:21:00;16.40;99.90
37938;DHT22;23763;48.130;11.602;2022-09-09T02:23:26;16.40;99.90
37938;DHT22;23763;48.130;11.602;2022-09-09T02:25:54;16.40;99.90
37938;DHT22;23763;48.130;11.602;2022-09-09T02:28:22;16.50;99.90
37938;DHT22;23763;48.130;11.602;2022-09-09T02:30:51;16.50;99.90
37938;DHT22;23763;48.130;11.602;2022-09-09T02:33:25;16.50;99.90
37938;DHT22;23763;48.130;11.602;2022-09-09T02:35:52;16.50;99.90
37938;DHT22;23763;48.130;11.602;2022-09-09T02:38:20;16.50;99.90
37938;DHT22;23763;48.130;11.602;2022-09-09T02:40:46;16.50;99.90
37938;DHT22;23763;48.130;11.602;2022-09-09T02:43:14;16.50;99.90
37938;DHT22;23763;48.130;11.602;2022-09-09T02:45:47;16.50;99.90
37938;DHT22;23763;48.130;11.602;2022-09-09T02:51:24;16.60;99.90
37938;DHT22;23763;48.130;11.602;2022-09-09T02:56:30;16.60;99.90
37938;DHT22;23763;48.130;11.602;2022-09-09T02:58:59;16.70;99.90
37938;DHT22;23763;48.130;11.602;2022-09-09T03:01:24;16.60;99.90
37938;DHT22;23763;48.130;11.602;2022-09-09T03:03:50;16.60;99.90
37938;DHT22;23763;48.130;11.602;2022-09-09T03:06:16;16.60;99.90
37938;DHT22;23763;48.130;11.602;2022-09-09T03:08:42;16.50;99.90
37938;DHT22;23763;48.130;11.602;2022-09-09T03:11:08;16.50;99.90
37938;DHT22;23763;48.130;11.602;2022-09-09T03:13:34;16.50;99.90
37938;DHT22;23763;48.130;11.602;2022-09-09T03:16:00;16.50;99.90
37938;DHT22;23763;48.130;11.602;2022-09-09T03:18:26;16.50;99.90
37938;DHT22;23763;48.130;11.602;2022-09-09T03:20:53;16.50;99.90
37938;DHT22;23763;48.130;11.602;2022-09-09T03:23:19;16.50;99.90
37938;DHT22;23763;48.130;11.602;2022-09-09T03:25:47;16.50;99.90
37938;DHT22;23763;48.130;11.602;2022-09-09T03:28:14;16.50;99.90
37938;DHT22;23763;48.130;11.602;2022-09-09T03:30:40;16.50;99.90
37938;DHT22;23763;48.130;11.602;2022-09-09T03:33:06;16.50;99.90
37938;DHT22;23763;48.130;11.602;2022-09-09T03:35:32;16.40;99.90
37938;DHT22;23763;48.130;11.602;2022-09-09T03:37:57;16.30;99.90
37938;DHT22;23763;48.130;11.602;2022-09-09T03:40:23;16.30;99.90
37938;DHT22;23763;48.130;11.602;2022-09-09T03:42:49;16.20;99.90
37938;DHT22;23763;48.130;11.602;2022-09-09T03:45:15;16.10;99.90
37938;DHT22;23763;48.130;11.602;2022-09-09T03:47:40;16.10;99.90
37938;DHT22;23763;48.130;11.602;2022-09-09T03:50:07;16.10;99.90
37938;DHT22;23763;48.130;11.602;2022-09-09T03:52:39;16.00;99.90
37938;DHT22;23763;48.130;11.602;2022-09-09T03:55:06;16.10;99.90
37938;DHT22;23763;48.130;11.602;2022-09-09T03:57:33;16.10;99.90
37938;DHT22;23763;48.130;11.602;2022-09-09T04:00:05;16.10;99.90
37938;DHT22;23763;48.130;11.602;2022-09-09T04:02:31;16.20;99.90
37938;DHT22;23763;48.130;11.602;2022-09-09T04:04:57;16.30;99.90
37938;DHT22;23763;48.130;11.602;2022-09-09T04:07:22;16.30;99.90
37938;DHT22;23763;48.130;11.602;2022-09-09T04:09:48;16.30;99.90
37938;DHT22;23763;48.130;11.602;2022-09-09T04:12:14;16.40;99.90
37938;DHT22;23763;48.130;11.602;2022-09-09T04:14:39;16.40;99.90
37938;DHT22;23763;48.130;11.602;2022-09-09T04:17:05;16.40;99.90
37938;DHT22;23763;48.130;11.602;2022-09-09T04:19:32;16.40;99.90
37938;DHT22;23763;48.130;11.602;2022-09-09T04:21:58;16.40;99.90
37938;DHT22;23763;48.130;11.602;2022-09-09T04:24:24;16.40;99.90
37938;DHT22;23763;48.130;11.602;2022-09-09T04:26:50;16.40;99.90
37938;DHT22;23763;48.130;11.602;2022-09-09T04:29:16;16.40;99.90
37938;DHT22;23763;48.130;11.602;2022-09-09T04:31:42;16.40;99.90
37938;DHT22;23763;48.130;11.602;2022-09-09T04:34:09;16.30;99.90
37938;DHT22;23763;48.130;11.602;2022-09-09T04:36:35;16.20;99.90
37938;DHT22;23763;48.130;11.602;2022-09-09T04:39:02;16.20;99.90
37938;DHT22;23763;48.130;11.602;2022-09-09T04:41:28;16.20;99.90
37938;DHT22;23763;48.130;11.602;2022-09-09T04:43:54;16.10;99.90
37938;DHT22;23763;48.130;11.602;2022-09-09T04:46:23;16.10;99.90
37938;DHT22;23763;48.130;11.602;2022-09-09T04:48:49;16.10;99.90
37938;DHT22;23763;48.130;11.602;2022-09-09T04:51:15;16.00;99.90
37938;DHT22;23763;48.130;11.602;2022-09-09T04:53:41;16.00;99.90
37938;DHT22;23763;48.130;11.602;2022-09-09T04:56:13;16.00;99.90
37938;DHT22;23763;48.130;11.602;2022-09-09T04:58:39;16.00;99.90
37938;DHT22;23763;48.130;11.602;2022-09-09T05:01:17;16.10;99.90
37938;DHT22;23763;48.130;11.602;2022-09-09T05:03:43;16.20;99.90
37938;DHT22;23763;48.130;11.602;2022-09-09T05:06:13;16.20;99.90
37938;DHT22;23763;48.130;11.602;2022-09-09T05:08:39;16.20;99.90
37938;DHT22;23763;48.130;11.602;2022-09-09T05:11:20;16.20;99.90
37938;DHT22;23763;48.130;11.602;2022-09-09T05:13:47;16.30;99.90
37938;DHT22;23763;48.130;11.602;2022-09-09T05:16:14;16.20;99.90
37938;DHT22;23763;48.130;11.602;2022-09-09T05:18:40;16.30;99.90
37938;DHT22;23763;48.130;11.602;2022-09-09T05:21:08;16.20;99.90
37938;DHT22;23763;48.130;11.602;2022-09-09T05:23:35;16.20;99.90
37938;DHT22;23763;48.130;11.602;2022-09-09T05:26:01;16.20;99.90
37938;DHT22;23763;48.130;11.602;2022-09-09T05:28:27;16.20;99.90
37938;DHT22;23763;48.130;11.602;2022-09-09T05:31:01;16.20;99.90
37938;DHT22;23763;48.130;11.602;2022-09-09T05:33:29;16.20;99.90
37938;DHT22;23763;48.130;11.602;2022-09-09T05:36:15;16.20;99.90
37938;DHT22;23763;48.130;11.602;2022-09-09T05:38:43;16.20;99.90
37938;DHT22;23763;48.130;11.602;2022-09-09T05:41:09;16.20;99.90
37938;DHT22;23763;48.130;11.602;2022-09-09T05:43:37;16.20;99.90
37938;DHT22;23763;48.130;11.602;2022-09-09T05:46:08;16.20;99.90
37938;DHT22;23763;48.130;11.602;2022-09-09T05:48:37;16.20;99.90
37938;DHT22;23763;48.130;11.602;2022-09-09T05:51:05;16.30;99.90
37938;DHT22;23763;48.130;11.602;2022-09-09T05:53:32;16.30;99.90
37938;DHT22;23763;48.130;11.602;2022-09-09T05:56:04;16.40;99.90
37938;DHT22;23763;48.130;11.602;2022-09-09T05:58:31;16.40;99.90
37938;DHT22;23763;48.130;11.602;2022-09-09T06:01:05;16.40;99.90
37938;DHT22;23763;48.130;11.602;2022-09-09T06:03:33;16.50;99.90
37938;DHT22;23763;48.130;11.602;2022-09-09T06:06:01;16.50;99.90
37938;DHT22;23763;48.130;11.602;2022-09-09T06:08:27;16.50;99.90
37938;DHT22;23763;48.130;11.602;2022-09-09T06:10:53;16.60;99.90
37938;DHT22;23763;48.130;11.602;2022-09-09T06:13:27;16.60;99.90
37938;DHT22;23763;48.130;11.602;2022-09-09T06:15:53;16.70;99.90
37938;DHT22;23763;48.130;11.602;2022-09-09T06:18:19;16.80;99.90
37938;DHT22;23763;48.130;11.602;2022-09-09T06:20:59;16.70;99.90
37938;DHT22;23763;48.130;11.602;2022-09-09T06:23:26;16.90;99.90
37938;DHT22;23763;48.130;11.602;2022-09-09T06:26:14;16.80;99.90
37938;DHT22;23763;48.130;11.602;2022-09-09T06:28:40;16.80;99.90
37938;DHT22;23763;48.130;11.602;2022-09-09T06:31:10;16.70;99.90
37938;DHT22;23763;48.130;11.602;2022-09-09T06:33:38;16.70;99.90
37938;DHT22;23763;48.130;11.602;2022-09-09T06:36:11;16.70;99.90
37938;DHT22;23763;48.130;11.602;2022-09-09T06:38:38;16.70;99.90
37938;DHT22;23763;48.130;11.602;2022-09-09T06:41:04;16.70;99.90
37938;DHT22;23763;48.130;11.602;2022-09-09T06:43:31;16.70;99.90
37938;DHT22;23763;48.130;11.602;2022-09-09T06:46:05;16.70;99.90
37938;DHT22;23763;48.130;11.602;2022-09-09T06:48:31;16.80;99.90
37938;DHT22;23763;48.130;11.602;2022-09-09T06:51:04;16.80;99.90
37938;DHT22;23763;48.130;11.602;2022-09-09T06:53:35;16.90;99.90
37938;DHT22;23763;48.130;11.602;2022-09-09T06:56:32;17.00;99.90
37938;DHT22;23763;48.130;11.602;2022-09-09T06:59:01;17.10;99.90
37938;DHT22;23763;48.130;11.602;2022-09-09T07:01:30;17.20;99.90
37938;DHT22;23763;48.130;11.602;2022-09-09T07:03:58;17.20;99.90
37938;DHT22;23763;48.130;11.602;2022-09-09T07:06:35;17.30;99.90
37938;DHT22;23763;48.130;11.602;2022-09-09T07:09:04;17.40;99.90
37938;DHT22;23763;48.130;11.602;2022-09-09T07:11:37;17.40;99.90
37938;DHT22;23763;48.130;11.602;2022-09-09T07:14:03;17.40;99.90
37938;DHT22;23763;48.130;11.602;2022-09-09T07:16:29;17.50;99.90
37938;DHT22;23763;48.130;11.602;2022-09-09T07:18:57;17.50;99.90
37938;DHT22;23763;48.130;11.602;2022-09-09T07:21:24;17.60;99.90
37938;DHT22;23763;48.130;11.602;2022-09-09T07:23:52;17.60;99.90
37938;DHT22;23763;48.130;11.602;2022-09-09T07:26:19;17.60;99.90
37938;DHT22;23763;48.130;11.602;2022-09-09T07:28:46;17.60;99.90
37938;DHT22;23763;48.130;11.602;2022-09-09T07:31:17;17.50;99.90
37938;DHT22;23763;48.130;11.602;2022-09-09T07:33:44;17.50;99.90
37938;DHT22;23763;48.130;11.602;2022-09-09T07:36:22;17.40;99.90
37938;DHT22;23763;48.130;11.602;2022-09-09T07:38:54;17.40;99.90
37938;DHT22;23763;48.130;11.602;2022-09-09T07:41:34;17.50;99.90
37938;DHT22;23763;48.130;11.602;2022-09-09T07:44:06;17.60;99.90
37938;DHT22;23763;48.130;11.602;2022-09-09T07:46:32;17.70;99.90
37938;DHT22;23763;48.130;11.602;2022-09-09T07:48:58;17.70;99.90
37938;DHT22;23763;48.130;11.602;2022-09-09T07:51:29;17.90;99.90
37938;DHT22;23763;48.130;11.602;2022-09-09T07:53:57;18.10;99.90
37938;DHT22;23763;48.130;11.602;2022-09-09T07:56:24;18.20;99.90
37938;DHT22;23763;48.130;11.602;2022-09-09T07:58:52;18.40;99.90
37938;DHT22;23763;48.130;11.602;2022-09-09T08:01:45;18.50;99.90
37938;DHT22;23763;48.130;11.602;2022-09-09T08:04:17;18.60;99.90
37938;DHT22;23763;48.130;11.602;2022-09-09T08:06:56;18.50;99.90
37938;DHT22;23763;48.130;11.602;2022-09-09T08:09:23;18.30;99.90
37938;DHT22;23763;48.130;11.602;2022-09-09T08:11:54;18.20;99.90
37938;DHT22;23763;48.130;11.602;2022-09-09T08:14:22;18.40;99.90
37938;DHT22;23763;48.130;11.602;2022-09-09T08:16:49;18.50;99.90
37938;DHT22;23763;48.130;11.602;2022-09-09T08:19:15;18.70;99.90
37938;DHT22;23763;48.130;11.602;2022-09-09T08:21:42;18.60;99.90
37938;DHT22;23763;48.130;11.602;2022-09-09T08:24:09;18.70;99.90
37938;DHT22;23763;48.130;11.602;2022-09-09T08:26:45;18.50;99.90
37938;DHT22;23763;48.130;11.602;2022-09-09T08:29:12;18.50;99.90
37938;DHT22;23763;48.130;11.602;2022-09-09T08:31:43;18.50;99.90
37938;DHT22;23763;48.130;11.602;2022-09-09T08:34:09;18.50;99.90
37938;DHT22;23763;48.130;11.602;2022-09-09T08:36:42;18.60;99.90
37938;DHT22;23763;48.130;11.602;2022-09-09T08:39:09;18.70;99.90
37938;DHT22;23763;48.130;11.602;2022-09-09T08:44:56;19.00;99.90
37938;DHT22;23763;48.130;11.602;2022-09-09T08:55:34;18.80;99.90
37938;DHT22;23763;48.130;11.602;2022-09-09T08:58:09;18.60;99.90
37938;DHT22;23763;48.130;11.602;2022-09-09T09:00:55;18.60;99.90
37938;DHT22;23763;48.130;11.602;2022-09-09T09:03:45;18.70;99.90
37938;DHT22;23763;48.130;11.602;2022-09-09T09:12:20;18.80;99.90
37938;DHT22;23763;48.130;11.602;2022-09-09T09:14:48;18.70;99.90
37938;DHT22;23763;48.130;11.602;2022-09-09T09:19:41;18.80;99.90
37938;DHT22;23763;48.130;11.602;2022-09-09T09:22:23;19.10;99.90
37938;DHT22;23763;48.130;11.602;2022-09-09T09:25:19;19.30;99.90
37938;DHT22;23763;48.130;11.602;2022-09-09T09:28:03;19.40;99.90
37938;DHT22;23763;48.130;11.602;2022-09-09T09:30:50;19.60;99.90
37938;DHT22;23763;48.130;11.602;2022-09-09T09:35:53;20.30;99.90
37938;DHT22;23763;48.130;11.602;2022-09-09T09:38:22;20.40;99.90
37938;DHT22;23763;48.130;11.602;2022-09-09T09:40:53;20.30;99.90
37938;DHT22;23763;48.130;11.602;2022-09-09T09:43:36;20.10;99.90
37938;DHT22;23763;48.130;11.602;2022-09-09T09:46:05;19.90;99.90
37938;DHT22;23763;48.130;11.602;2022-09-09T09:48:31;19.80;99.90
37938;DHT22;23763;48.130;11.602;2022-09-09T09:51:09;19.70;99.90
37938;DHT22;23763;48.130;11.602;2022-09-09T09:53:37;19.80;99.90
37938;DHT22;23763;48.130;11.602;2022-09-09T09:56:05;19.80;99.90
37938;DHT22;23763;48.130;11.602;2022-09-09T09:58:37;19.80;99.90
37938;DHT22;23763;48.130;11.602;2022-09-09T10:01:23;19.50;99.90
37938;DHT22;23763;48.130;11.602;2022-09-09T10:04:01;19.40;99.90
37938;DHT22;23763;48.130;11.602;2022-09-09T10:06:36;19.40;99.90
37938;DHT22;23763;48.130;11.602;2022-09-09T10:09:04;19.30;99.90
37938;DHT22;23763;48.130;11.602;2022-09-09T10:11:46;19.30;99.90
37938;DHT22;23763;48.130;11.602;2022-09-09T10:22:38;19.40;99.90
37938;DHT22;23763;48.130;11.602;2022-09-09T10:25:29;19.50;99.90
37938;DHT22;23763;48.130;11.602;2022-09-09T10:28:30;19.40;99.90
37938;DHT22;23763;48.130;11.602;2022-09-09T10:36:25;18.90;99.90
37938;DHT22;23763;48.130;11.602;2022-09-09T10:39:10;18.90;99.90
37938;DHT22;23763;48.130;11.602;2022-09-09T10:41:54;19.00;99.90
37938;DHT22;23763;48.130;11.602;2022-09-09T10:47:28;19.20;99.90
37938;DHT22;23763;48.130;11.602;2022-09-09T10:52:49;19.30;99.90
37938;DHT22;23763;48.130;11.602;2022-09-09T10:55:24;19.20;99.90
37938;DHT22;23763;48.130;11.602;2022-09-09T10:57:54;19.20;99.90
37938;DHT22;23763;48.130;11.602;2022-09-09T11:03:02;19.40;99.90
37938;DHT22;23763;48.130;11.602;2022-09-09T11:08:04;19.80;99.90
37938;DHT22;23763;48.130;11.602;2022-09-09T11:10:58;19.80;99.90
37938;DHT22;23763;48.130;11.602;2022-09-09T11:19:16;20.60;99.90
37938;DHT22;23763;48.130;11.602;2022-09-09T11:21:51;20.70;99.90
37938;DHT22;23763;48.130;11.602;2022-09-09T11:24:40;20.90;99.90
37938;DHT22;23763;48.130;11.602;2022-09-09T11:32:44;20.80;99.90
37938;DHT22;23763;48.130;11.602;2022-09-09T11:40:40;20.60;99.90
37938;DHT22;23763;48.130;11.602;2022-09-09T11:43:12;20.80;99.90
37938;DHT22;23763;48.130;11.602;2022-09-09T11:45:41;20.70;99.90
37938;DHT22;23763;48.130;11.602;2022-09-09T11:48:28;20.80;99.90
37938;DHT22;23763;48.130;11.602;2022-09-09T11:51:09;21.00;99.90
37938;DHT22;23763;48.130;11.602;2022-09-09T11:54:32;21.10;99.90
37938;DHT22;23763;48.130;11.602;2022-09-09T11:56:43;21.00;99.90
37938;DHT22;23763;48.130;11.602;2022-09-09T11:59:29;21.30;99.90
37938;DHT22;23763;48.130;11.602;2022-09-09T12:01:57;21.40;99.90
37938;DHT22;23763;48.130;11.602;2022-09-09T12:07:22;21.20;99.90
37938;DHT22;23763;48.130;11.602;2022-09-09T12:09:58;21.10;99.90
37938;DHT22;23763;48.130;11.602;2022-09-09T12:12:30;20.90;99.90
37938;DHT22;23763;48.130;11.602;2022-09-09T12:17:30;20.90;99.90
37938;DHT22;23763;48.130;11.602;2022-09-09T12:30:29;21.10;99.90
37938;DHT22;23763;48.130;11.602;2022-09-09T12:33:16;21.30;99.90
37938;DHT22;23763;48.130;11.602;2022-09-09T12:35:43;21.50;99.90
37938;DHT22;23763;48.130;11.602;2022-09-09T12:38:27;21.80;99.90
37938;DHT22;23763;48.130;11.602;2022-09-09T12:40:58;21.60;99.90
37938;DHT22;23763;48.130;11.602;2022-09-09T12:43:25;21.30;99.90
37938;DHT22;23763;48.130;11.602;2022-09-09T12:45:58;21.30;99.90
37938;DHT22;23763;48.130;11.602;2022-09-09T12:48:37;21.50;99.90
37938;DHT22;23763;48.130;11.602;2022-09-09T12:51:05;21.50;99.90
37938;DHT22;23763;48.130;11.602;2022-09-09T12:53:36;21.60;99.90
37938;DHT22;23763;48.130;11.602;2022-09-09T12:56:17;21.70;99.90
37938;DHT22;23763;48.130;11.602;2022-09-09T12:58:47;21.60;99.90
37938;DHT22;23763;48.130;11.602;2022-09-09T13:01:29;21.60;99.90
37938;DHT22;23763;48.130;11.602;2022-09-09T13:03:56;21.30;99.90
37938;DHT22;23763;48.130;11.602;2022-09-09T13:06:24;21.30;99.90
37938;DHT22;23763;48.130;11.602;2022-09-09T13:08:54;21.30;99.90
37938;DHT22;23763;48.130;11.602;2022-09-09T13:11:25;21.30;99.90
37938;DHT22;23763;48.130;11.602;2022-09-09T13:13:56;21.00;99.90
37938;DHT22;23763;48.130;11.602;2022-09-09T13:18:51;21.30;99.90
37938;DHT22;23763;48.130;11.602;2022-09-09T13:21:17;21.40;99.90
37938;DHT22;23763;48.130;11.602;2022-09-09T13:23:49;21.40;99.90
37938;DHT22;23763;48.130;11.602;2022-09-09T13:26:26;21.50;99.90
37938;DHT22;23763;48.130;11.602;2022-09-09T13:28:54;21.50;99.90
37938;DHT22;23763;48.130;11.602;2022-09-09T13:31:28;21.50;99.90
37938;DHT22;23763;48.130;11.602;2022-09-09T13:33:54;21.50;99.90
37938;DHT22;23763;48.130;11.602;2022-09-09T13:36:32;21.50;99.90
37938;DHT22;23763;48.130;11.602;2022-09-09T13:38:59;21.30;99.90
37938;DHT22;23763;48.130;11.602;2022-09-09T13:41:34;21.20;99.90
37938;DHT22;23763;48.130;11.602;2022-09-09T13:44:01;21.10;99.90
37938;DHT22;23763;48.130;11.602;2022-09-09T13:46:34;21.10;99.90
37938;DHT22;23763;48.130;11.602;2022-09-09T13:49:23;20.90;99.90
37938;DHT22;23763;48.130;11.602;2022-09-09T13:51:50;20.80;99.90
37938;DHT22;23763;48.130;11.602;2022-09-09T13:54:20;20.90;99.90
37938;DHT22;23763;48.130;11.602;2022-09-09T13:56:46;20.70;99.90
37938;DHT22;23763;48.130;11.602;2022-09-09T13:59:18;20.70;99.90
37938;DHT22;23763;48.130;11.602;2022-09-09T14:01:47;20.50;99.90
37938;DHT22;23763;48.130;11.602;2022-09-09T14:04:14;20.40;99.90
37938;DHT22;23763;48.130;11.602;2022-09-09T14:06:41;20.40;99.90
37938;DHT22;23763;48.130;11.602;2022-09-09T14:09:12;20.30;99.90
37938;DHT22;23763;48.130;11.602;2022-09-09T14:11:38;20.30;99.90
37938;DHT22;23763;48.130;11.602;2022-09-09T14:14:05;20.10;99.90
37938;DHT22;23763;48.130;11.602;2022-09-09T14:16:31;20.10;99.90
37938;DHT22;23763;48.130;11.602;2022-09-09T14:18:58;20.20;99.90
37938;DHT22;23763;48.130;11.602;2022-09-09T14:21:25;20.30;99.90
37938;DHT22;23763;48.130;11.602;2022-09-09T14:23:50;20.20;99.90
37938;DHT22;23763;48.130;11.602;2022-09-09T14:26:18;20.10;99.90
37938;DHT22;23763;48.130;11.602;2022-09-09T14:28:44;20.10;99.90
37938;DHT22;23763;48.130;11.602;2022-09-09T14:31:11;20.00;99.90
37938;DHT22;23763;48.130;11.602;2022-09-09T14:33:38;20.00;99.90
37938;DHT22;23763;48.130;11.602;2022-09-09T14:36:05;20.10;99.90
37938;DHT22;23763;48.130;11.602;2022-09-09T14:38:32;20.20;99.90
37938;DHT22;23763;48.130;11.602;2022-09-09T14:40:59;20.00;99.90
37938;DHT22;23763;48.130;11.602;2022-09-09T14:43:25;19.80;99.90
37938;DHT22;23763;48.130;11.602;2022-09-09T14:45:52;19.80;99.90
37938;DHT22;23763;48.130;11.602;2022-09-09T14:48:18;19.70;99.90
37938;DHT22;23763;48.130;11.602;2022-09-09T14:50:44;19.60;99.90
37938;DHT22;23763;48.130;11.602;2022-09-09T14:53:10;19.70;99.90
37938;DHT22;23763;48.130;11.602;2022-09-09T14:55:37;19.70;99.90
37938;DHT22;23763;48.130;11.602;2022-09-09T14:58:04;19.60;99.90
37938;DHT22;23763;48.130;11.602;2022-09-09T15:00:31;19.40;99.90
37938;DHT22;23763;48.130;11.602;2022-09-09T15:02:57;19.40;99.90
37938;DHT22;23763;48.130;11.602;2022-09-09T15:05:23;19.50;99.90
37938;DHT22;23763;48.130;11.602;2022-09-09T15:07:50;19.50;99.90
37938;DHT22;23763;48.130;11.602;2022-09-09T15:10:16;19.60;99.90
37938;DHT22;23763;48.130;11.602;2022-09-09T15:12:43;19.60;99.90
37938;DHT22;23763;48.130;11.602;2022-09-09T15:15:09;19.60;99.90
37938;DHT22;23763;48.130;11.602;2022-09-09T15:17:35;19.60;99.90
37938;DHT22;23763;48.130;11.602;2022-09-09T15:20:03;19.60;99.90
37938;DHT22;23763;48.130;11.602;2022-09-09T15:22:28;19.60;99.90
37938;DHT22;23763;48.130;11.602;2022-09-09T15:24:54;19.60;99.90
37938;DHT22;23763;48.130;11.602;2022-09-09T15:27:20;19.60;99.90
37938;DHT22;23763;48.130;11.602;2022-09-09T15:29:45;19.60;99.90
37938;DHT22;23763;48.130;11.602;2022-09-09T15:32:12;19.50;99.90
37938;DHT22;23763;48.130;11.602;2022-09-09T15:34:38;19.40;99.90
37938;DHT22;23763;48.130;11.602;2022-09-09T15:37:04;19.30;99.90
37938;DHT22;23763;48.130;11.602;2022-09-09T15:39:29;19.20;99.90
37938;DHT22;23763;48.130;11.602;2022-09-09T15:41:55;19.20;99.90
37938;DHT22;23763;48.130;11.602;2022-09-09T15:44:22;19.30;99.90
37938;DHT22;23763;48.130;11.602;2022-09-09T15:46:52;19.40;99.90
37938;DHT22;23763;48.130;11.602;2022-09-09T15:49:25;19.40;99.90
37938;DHT22;23763;48.130;11.602;2022-09-09T15:51:56;19.30;99.90
37938;DHT22;23763;48.130;11.602;2022-09-09T15:54:24;19.20;99.90
37938;DHT22;23763;48.130;11.602;2022-09-09T15:56:52;19.20;99.90
37938;DHT22;23763;48.130;11.602;2022-09-09T15:59:21;19.30;99.90
37938;DHT22;23763;48.130;11.602;2022-09-09T16:01:48;19.50;99.90
37938;DHT22;23763;48.130;11.602;2022-09-09T16:04:17;19.50;99.90
37938;DHT22;23763;48.130;11.602;2022-09-09T16:06:50;19.50;99.90
37938;DHT22;23763;48.130;11.602;2022-09-09T16:09:16;19.50;99.90
37938;DHT22;23763;48.130;11.602;2022-09-09T16:11:42;19.40;99.90
37938;DHT22;23763;48.130;11.602;2022-09-09T16:14:07;19.20;99.90
37938;DHT22;23763;48.130;11.602;2022-09-09T16:16:34;19.10;99.90
37938;DHT22;23763;48.130;11.602;2022-09-09T16:19:04;19.00;99.90
37938;DHT22;23763;48.130;11.602;2022-09-09T16:21:35;18.90;99.90
37938;DHT22;23763;48.130;11.602;2022-09-09T16:24:03;18.90;99.90
37938;DHT22;23763;48.130;11.602;2022-09-09T16:26:32;18.90;99.90
37938;DHT22;23763;48.130;11.602;2022-09-09T16:28:59;19.00;99.90
37938;DHT22;23763;48.130;11.602;2022-09-09T16:31:26;19.00;99.90
37938;DHT22;23763;48.130;11.602;2022-09-09T16:33:52;19.00;99.90
37938;DHT22;23763;48.130;11.602;2022-09-09T16:36:20;19.10;99.90
37938;DHT22;23763;48.130;11.602;2022-09-09T16:38:46;19.10;99.90
37938;DHT22;23763;48.130;11.602;2022-09-09T16:41:14;19.20;99.90
37938;DHT22;23763;48.130;11.602;2022-09-09T16:43:40;19.20;99.90
37938;DHT22;23763;48.130;11.602;2022-09-09T16:46:26;19.10;99.90
37938;DHT22;23763;48.130;11.602;2022-09-09T16:48:53;19.10;99.90
37938;DHT22;23763;48.130;11.602;2022-09-09T16:51:32;19.00;99.90
37938;DHT22;23763;48.130;11.602;2022-09-09T16:54:00;19.00;99.90
37938;DHT22;23763;48.130;11.602;2022-09-09T16:56:28;18.90;99.90
37938;DHT22;23763;48.130;11.602;2022-09-09T16:59:00;18.80;99.90
37938;DHT22;23763;48.130;11.602;2022-09-09T17:01:29;18.80;99.90
37938;DHT22;23763;48.130;11.602;2022-09-09T17:03:56;18.70;99.90
37938;DHT22;23763;48.130;11.602;2022-09-09T17:06:22;18.60;99.90
37938;DHT22;23763;48.130;11.602;2022-09-09T17:08:54;18.50;99.90
37938;DHT22;23763;48.130;11.602;2022-09-09T17:11:20;18.40;99.90
37938;DHT22;23763;48.130;11.602;2022-09-09T17:13:47;18.40;99.90
37938;DHT22;23763;48.130;11.602;2022-09-09T17:16:15;18.30;99.90
37938;DHT22;23763;48.130;11.602;2022-09-09T17:18:41;18.30;99.90
37938;DHT22;23763;48.130;11.602;2022-09-09T17:21:13;18.20;99.90
37938;DHT22;23763;48.130;11.602;2022-09-09T17:23:39;18.20;99.90
37938;DHT22;23763;48.130;11.602;2022-09-09T17:26:10;18.10;99.90
37938;DHT22;23763;48.130;11.602;2022-09-09T17:28:37;18.10;99.90
37938;DHT22;23763;48.130;11.602;2022-09-09T17:31:05;18.00;99.90
37938;DHT22;23763;48.130;11.602;2022-09-09T17:33:37;17.90;99.90
37938;DHT22;23763;48.130;11.602;2022-09-09T17:36:17;17.90;99.90
37938;DHT22;23763;48.130;11.602;2022-09-09T17:38:44;17.70;99.90
37938;DHT22;23763;48.130;11.602;2022-09-09T17:43:40;17.60;99.90